Time;durP1;ratioP1;P1;durP2;ratioP2;P2;SDS_P1;SDS_P2;PMS_P1;PMS_P2;Temp;Humidity;BMP_temperature;BMP_pressure;BME280_temperature;BME280_humidity;BME280_pressure;Samples;Min_cycle;Max_cycle;Signal;HPM_P1;HPM_P2
2021/05/18 00:02:23;;;;;;;2.65;1.17;;;;;;;10.50;nan;100100.25;5080282;28;20051;-71
2021/05/18 00:04:48;;;;;;;1.98;1.00;;;;;;;10.46;nan;100101.53;5080786;28;20040;-70
2021/05/18 00:07:19;;;;;;;1.85;0.80;;;;;;;10.46;nan;100094.44;5067668;28;20443;-70
2021/05/18 00:12:31;;;;;;;1.98;1.20;;;;;;;10.49;nan;100098.59;5069003;28;20179;-71
2021/05/18 00:14:56;;;;;;;2.15;0.90;;;;;;;10.47;nan;100104.03;5072702;28;20290;-72
2021/05/18 00:17:22;;;;;;;1.50;1.00;;;;;;;10.49;nan;100098.59;5085295;28;20044;-71
2021/05/18 00:19:47;;;;;;;1.45;0.90;;;;;;;10.52;nan;100103.56;5085859;28;20118;-71
2021/05/18 00:22:12;;;;;;;2.00;1.00;;;;;;;10.52;nan;100104.38;5085871;28;20423;-71
2021/05/18 00:24:38;;;;;;;2.38;0.98;;;;;;;10.50;nan;100102.88;5086447;28;20247;-71
2021/05/18 00:27:04;;;;;;;2.45;1.38;;;;;;;10.52;nan;100106.19;5065703;28;20386;-71
2021/05/18 00:29:30;;;;;;;1.52;1.05;;;;;;;10.53;nan;100110.47;5079543;28;20133;-70
2021/05/18 00:31:56;;;;;;;2.65;1.00;;;;;;;10.54;nan;100112.16;5063356;28;20036;-71
2021/05/18 00:34:21;;;;;;;1.75;0.88;;;;;;;10.52;nan;100114.13;5064614;28;20040;-71
2021/05/18 00:36:46;;;;;;;2.83;1.30;;;;;;;10.53;nan;100116.59;5059691;28;20035;-71
2021/05/18 00:39:11;;;;;;;3.35;0.95;;;;;;;10.50;nan;100126.69;5066603;28;20283;-71
2021/05/18 00:41:37;;;;;;;1.90;1.10;;;;;;;10.44;nan;100117.59;5069197;28;20055;-71
2021/05/18 00:44:03;;;;;;;4.35;1.10;;;;;;;10.40;nan;100116.25;5048477;28;20032;-73
2021/05/18 00:46:29;;;;;;;3.15;1.20;;;;;;;10.33;nan;100112.59;5063890;28;20033;-72
2021/05/18 00:48:57;;;;;;;2.10;1.00;;;;;;;10.22;nan;100116.31;5050707;28;20032;-71
2021/05/18 00:51:25;;;;;;;2.25;1.00;;;;;;;10.19;nan;100114.00;5061184;28;20028;-72
2021/05/18 00:53:51;;;;;;;2.05;1.30;;;;;;;10.19;nan;100120.09;5071457;28;20025;-71
2021/05/18 00:59:00;;;;;;;1.70;1.10;;;;;;;10.15;nan;100136.41;5068663;28;20032;-72
2021/05/18 01:01:26;;;;;;;2.22;1.00;;;;;;;10.15;nan;100139.91;5061067;28;20523;-72
2021/05/18 01:03:53;;;;;;;1.85;1.00;;;;;;;10.13;nan;100148.97;5073460;28;20040;-72
2021/05/18 01:06:31;;;;;;;1.95;1.13;;;;;;;10.14;nan;100150.63;5071111;28;20071;-71
2021/05/18 01:09:09;;;;;;;1.75;0.90;;;;;;;10.11;nan;100157.06;5065495;28;20051;-72
2021/05/18 01:11:35;;;;;;;1.20;0.70;;;;;;;10.08;nan;100149.47;5073314;28;20074;-70
2021/05/18 01:14:05;;;;;;;1.40;0.80;;;;;;;10.03;nan;100154.34;5083264;28;20119;-71
2021/05/18 01:16:35;;;;;;;2.05;0.90;;;;;;;9.99;nan;100153.88;5087275;28;20043;-71
2021/05/18 01:19:00;;;;;;;1.70;0.75;;;;;;;10.02;nan;100151.91;5077951;28;20036;-71
2021/05/18 01:21:26;;;;;;;1.23;0.80;;;;;;;9.94;nan;100142.13;5072822;28;20032;-70
2021/05/18 01:23:52;;;;;;;1.30;0.80;;;;;;;9.97;nan;100149.72;5066670;28;20048;-71
2021/05/18 01:26:18;;;;;;;1.77;0.90;;;;;;;9.94;nan;100150.03;5044483;28;20078;-71
2021/05/18 01:28:44;;;;;;;0.82;0.73;;;;;;;9.84;nan;100147.50;5048435;28;20493;-71
2021/05/18 01:31:13;;;;;;;1.17;0.80;;;;;;;9.87;nan;100152.47;5049940;28;20082;-71
2021/05/18 01:33:38;;;;;;;1.83;0.70;;;;;;;9.86;nan;100148.16;5037953;28;20044;-72
2021/05/18 01:36:08;;;;;;;1.35;0.60;;;;;;;9.84;nan;100149.31;5063620;28;20040;-72
2021/05/18 01:38:41;;;;;;;1.85;0.80;;;;;;;9.77;nan;100149.94;5070492;28;20040;-71
2021/05/18 01:43:56;;;;;;;1.48;0.88;;;;;;;9.71;nan;100152.38;5088469;28;20117;-72
2021/05/18 01:46:23;;;;;;;1.50;0.70;;;;;;;9.74;nan;100144.13;5068530;28;20516;-72
2021/05/18 01:48:58;;;;;;;1.98;1.20;;;;;;;9.73;nan;100153.06;5056658;28;20029;-72
2021/05/18 01:51:33;;;;;;;1.20;0.73;;;;;;;9.71;nan;100147.91;5083857;28;20052;-72
2021/05/18 01:54:06;;;;;;;2.13;0.80;;;;;;;9.77;nan;100149.94;5084414;28;20028;-71
2021/05/18 01:56:43;;;;;;;1.38;0.80;;;;;;;9.73;nan;100151.22;5086744;28;20489;-72
2021/05/18 01:59:18;;;;;;;1.38;0.90;;;;;;;9.77;nan;100155.22;5077123;28;20032;-72
2021/05/18 02:01:43;;;;;;;1.15;0.80;;;;;;;9.84;nan;100165.16;5046517;28;20112;-72
2021/05/18 02:04:28;;;;;;;1.10;0.80;;;;;;;9.82;nan;100165.31;5045962;28;20142;-73
2021/05/18 02:06:54;;;;;;;1.25;1.00;;;;;;;9.84;nan;100158.06;5085683;28;20044;-72
2021/05/18 02:09:20;;;;;;;1.13;0.82;;;;;;;9.84;nan;100165.16;5081191;28;20502;-72
2021/05/18 02:11:47;;;;;;;1.67;0.90;;;;;;;9.81;nan;100168.13;5079880;28;20182;-72
2021/05/18 02:14:22;;;;;;;1.50;0.90;;;;;;;9.85;nan;100167.66;5088241;28;20491;-72
2021/05/18 02:16:47;;;;;;;1.25;0.88;;;;;;;9.88;nan;100164.69;5088287;28;20028;-72
2021/05/18 02:20:01;;;;;;;2.33;1.00;;;;;;;9.87;nan;100162.22;5090202;28;20032;-72
2021/05/18 02:24:44;;;;;;;4.55;1.10;;;;;;;9.86;nan;100168.47;5091094;28;20043;-72
2021/05/18 02:27:10;;;;;;;2.38;1.10;;;;;;;9.86;nan;100171.94;5090492;28;20032;-72
2021/05/18 02:29:35;;;;;;;1.65;1.00;;;;;;;9.89;nan;100171.66;5071235;28;20507;-72
2021/05/18 02:32:01;;;;;;;1.85;1.27;;;;;;;9.89;nan;100169.00;5086905;28;20032;-75
2021/05/18 02:34:26;;;;;;;1.95;1.20;;;;;;;9.89;nan;100181.34;5077369;28;20040;-72
2021/05/18 02:36:52;;;;;;;3.65;1.90;;;;;;;9.92;nan;100184.53;5091397;28;20214;-72
2021/05/18 02:39:17;;;;;;;1.98;1.48;;;;;;;9.88;nan;100175.25;5089558;28;20029;-72
2021/05/18 02:41:42;;;;;;;1.80;1.50;;;;;;;9.92;nan;100186.34;5085349;28;20062;-72
2021/05/18 02:44:22;;;;;;;1.48;1.10;;;;;;;9.88;nan;100185.81;5090301;28;20647;-72
2021/05/18 02:49:31;;;;;;;2.88;1.75;;;;;;;9.94;nan;100193.13;5082209;28;20454;-72
2021/05/18 02:51:57;;;;;;;3.90;1.98;;;;;;;9.98;nan;100193.63;5074715;28;20032;-72
2021/05/18 02:54:25;;;;;;;3.05;1.65;;;;;;;9.95;nan;100196.59;5052768;28;20139;-72
2021/05/18 02:56:55;;;;;;;3.40;1.60;;;;;;;9.96;nan;100198.22;5053461;28;20120;-72
2021/05/18 02:59:20;;;;;;;2.43;1.60;;;;;;;9.97;nan;100191.97;5070829;28;20025;-72
2021/05/18 03:01:57;;;;;;;2.22;1.60;;;;;;;9.98;nan;100188.34;5071238;28;20039;-72
2021/05/18 03:04:23;;;;;;;2.53;1.80;;;;;;;10.03;nan;100188.69;5070310;28;20089;-72
2021/05/18 03:06:50;;;;;;;3.80;1.70;;;;;;;9.96;nan;100191.16;5071349;28;20028;-72
2021/05/18 03:09:16;;;;;;;2.70;1.60;;;;;;;10.05;nan;100207.03;5069894;28;20448;-72
2021/05/18 03:11:43;;;;;;;2.42;1.60;;;;;;;10.05;nan;100197.31;5071329;28;20029;-72
2021/05/18 03:14:09;;;;;;;5.00;1.65;;;;;;;10.06;nan;100204.25;5070273;28;20028;-72
2021/05/18 03:16:37;;;;;;;2.03;1.42;;;;;;;10.06;nan;100195.47;5072051;28;20041;-72
2021/05/18 03:19:03;;;;;;;1.58;1.20;;;;;;;10.02;nan;100205.53;5071240;28;20078;-71
2021/05/18 03:21:28;;;;;;;2.40;1.70;;;;;;;10.03;nan;100196.63;5070717;28;20036;-71
2021/05/18 03:23:54;;;;;;;3.25;1.70;;;;;;;10.04;nan;100208.03;5070789;28;20409;-71
2021/05/18 03:26:19;;;;;;;2.22;1.30;;;;;;;9.98;nan;100197.09;5052235;28;20035;-71
2021/05/18 03:28:47;;;;;;;2.20;1.30;;;;;;;9.97;nan;100198.09;5069878;28;20081;-72
2021/05/18 03:36:40;;;;;;;2.88;1.30;;;;;;;9.97;nan;100198.09;5085879;28;20039;-71
2021/05/18 03:39:05;;;;;;;1.83;1.40;;;;;;;10.02;nan;100204.72;5084582;28;20040;-71
2021/05/18 03:41:41;;;;;;;3.35;1.55;;;;;;;10.00;nan;100203.06;5090521;28;20504;-73
2021/05/18 03:44:18;;;;;;;2.25;1.60;;;;;;;9.97;nan;100210.47;5089231;28;20622;-72
2021/05/18 03:54:59;;;;;;;3.50;1.73;;;;;;;9.96;nan;100220.22;5085847;28;20561;-71
2021/05/18 04:21:12;;;;;;;3.03;2.20;;;;;;;10.10;nan;100247.03;5059835;28;20038;-71
2021/05/18 04:23:51;;;;;;;4.53;2.58;;;;;;;10.17;nan;100256.00;5060034;28;20578;-72
2021/05/18 04:26:36;;;;;;;3.03;1.90;;;;;;;10.13;nan;100246.72;5064769;28;20032;-72
2021/05/18 05:14:25;;;;;;;3.08;1.40;;;;;;;10.19;nan;100283.91;5072229;28;20550;-71
2021/05/18 05:16:52;;;;;;;3.03;1.40;;;;;;;10.14;nan;100290.66;5070226;28;20032;-72
2021/05/18 05:19:17;;;;;;;3.25;1.60;;;;;;;10.17;nan;100285.06;5047885;28;20037;-72
2021/05/18 05:21:43;;;;;;;2.75;1.60;;;;;;;10.20;nan;100290.88;5065542;28;20471;-72
2021/05/18 05:24:09;;;;;;;2.00;1.50;;;;;;;10.18;nan;100294.66;5069212;28;20505;-73
2021/05/18 05:26:36;;;;;;;3.13;1.48;;;;;;;10.20;nan;100303.25;5038457;28;20068;-72
2021/05/18 05:29:04;;;;;;;2.95;1.48;;;;;;;10.26;nan;100302.63;5049049;28;20256;-72
2021/05/18 05:31:30;;;;;;;2.20;1.42;;;;;;;10.26;nan;100305.28;5067163;28;20025;-72
2021/05/18 05:33:55;;;;;;;2.92;1.38;;;;;;;10.30;nan;100305.84;5065982;28;20524;-72
2021/05/18 05:36:20;;;;;;;3.00;1.55;;;;;;;10.34;nan;100299.22;5044679;28;20075;-72
2021/05/18 05:38:47;;;;;;;2.55;1.30;;;;;;;10.40;nan;100311.84;5071645;28;20229;-72
2021/05/18 05:41:13;;;;;;;2.60;1.65;;;;;;;10.38;nan;100306.69;5084570;28;20074;-71
2021/05/18 05:43:38;;;;;;;2.03;1.25;;;;;;;10.40;nan;100317.13;5083131;28;20032;-71
2021/05/18 05:46:03;;;;;;;2.03;1.23;;;;;;;10.38;nan;100316.44;5068818;28;20028;-72
2021/05/18 05:48:29;;;;;;;3.08;1.35;;;;;;;10.51;nan;100321.31;5065053;28;20512;-72
2021/05/18 05:50:54;;;;;;;2.50;1.40;;;;;;;10.54;nan;100319.19;5082418;28;20054;-71
2021/05/18 05:53:19;;;;;;;2.00;1.10;;;;;;;10.66;nan;100322.41;5079463;28;20240;-71
2021/05/18 05:55:45;;;;;;;2.28;1.20;;;;;;;10.70;nan;100315.81;5085484;28;20086;-72
2021/05/18 05:58:10;;;;;;;1.83;1.00;;;;;;;10.72;nan;100311.19;5071265;28;20033;-72
2021/05/18 06:00:35;;;;;;;2.28;1.20;;;;;;;10.76;nan;100311.69;5082676;28;20025;-72
2021/05/18 06:03:01;;;;;;;2.38;1.10;;;;;;;10.84;nan;100307.28;5083101;28;20033;-72
2021/05/18 06:05:26;;;;;;;1.38;0.90;;;;;;;10.98;nan;100307.66;5077142;28;20567;-72
2021/05/18 06:07:52;;;;;;;2.67;1.15;;;;;;;11.06;nan;100320.94;5051299;28;20035;-72
2021/05/18 06:10:23;;;;;;;4.32;1.20;;;;;;;11.24;nan;100324.28;5088351;28;20044;-72
2021/05/18 06:47:34;;;;;;;2.90;1.20;;;;;;;11.83;nan;100328.69;5069409;28;20080;-71
2021/05/18 06:52:41;;;;;;;2.45;1.10;;;;;;;11.84;nan;100335.63;5091178;28;20036;-71
2021/05/18 06:55:10;;;;;;;2.70;1.20;;;;;;;11.83;nan;100336.66;5092044;28;20040;-71
2021/05/18 06:57:37;;;;;;;2.70;1.27;;;;;;;11.80;nan;100345.75;5091536;28;20054;-72
2021/05/18 07:00:38;;;;;;;2.53;1.17;;;;;;;11.97;nan;100343.16;5086481;28;20036;-71
2021/05/18 07:02:58;;;;;;;2.75;1.02;;;;;;;12.03;nan;100353.88;5071288;28;20123;-71
2021/05/18 07:07:59;;;;;;;2.72;1.20;;;;;;;12.02;nan;100368.16;5090613;28;20035;-72
2021/05/18 07:10:25;;;;;;;3.90;1.30;;;;;;;12.29;nan;100377.56;5087917;28;20047;-72
2021/05/18 07:12:50;;;;;;;1.95;1.20;;;;;;;12.20;nan;100365.31;5086619;28;20127;-72
2021/05/18 07:15:16;;;;;;;2.50;1.60;;;;;;;12.20;nan;100369.78;5058471;28;20429;-71
2021/05/18 07:17:41;;;;;;;2.50;1.48;;;;;;;12.11;nan;100371.63;5066869;28;20086;-72
2021/05/18 07:20:07;;;;;;;2.78;1.30;;;;;;;12.00;nan;100374.59;5068692;28;20029;-73
2021/05/18 07:22:32;;;;;;;3.35;1.60;;;;;;;11.90;nan;100370.28;5053347;28;20076;-71
2021/05/18 07:24:58;;;;;;;3.13;1.30;;;;;;;11.88;nan;100371.44;5069925;28;20443;-71
2021/05/18 07:27:23;;;;;;;2.33;1.50;;;;;;;11.90;nan;100372.94;5052081;28;20113;-72
2021/05/18 07:29:49;;;;;;;4.15;1.73;;;;;;;12.10;nan;100370.78;5069405;28;20481;-71
2021/05/18 07:32:14;;;;;;;2.83;1.20;;;;;;;12.31;nan;100377.41;5070939;28;20485;-71
2021/05/18 07:34:39;;;;;;;3.40;1.30;;;;;;;12.41;nan;100370.13;5070507;28;20124;-70
2021/05/18 07:37:05;;;;;;;2.80;1.50;;;;;;;12.67;nan;100369.09;5066343;28;20082;-71
2021/05/18 07:39:30;;;;;;;2.15;1.35;;;;;;;12.72;nan;100369.41;5067894;28;20044;-70
2021/05/18 07:41:55;;;;;;;3.47;1.67;;;;;;;12.90;nan;100372.69;5065877;28;20044;-71
2021/05/18 07:44:21;;;;;;;3.05;1.40;;;;;;;12.89;nan;100365.69;5062646;28;20037;-71
2021/05/18 07:46:47;;;;;;;2.00;1.50;;;;;;;13.03;nan;100366.00;5067059;28;20028;-71
2021/05/18 07:59:51;;;;;;;2.30;0.90;;;;;;;14.05;nan;100350.00;5064027;28;20578;-71
2021/05/18 08:02:31;;;;;;;2.42;1.20;;;;;;;13.83;nan;100349.00;5048210;28;20055;-71
2021/05/18 08:07:41;;;;;;;2.25;1.30;;;;;;;13.38;nan;100357.56;5063682;28;20040;-72
2021/05/18 08:10:20;;;;;;;2.50;1.27;;;;;;;13.34;nan;100350.94;5068960;28;20500;-71
2021/05/18 08:12:46;;;;;;;2.90;1.40;;;;;;;13.53;nan;100348.84;5070808;28;20156;-71
2021/05/18 08:15:36;;;;;;;3.67;1.33;;;;;;;13.63;nan;100360.06;5071469;28;20036;-71
2021/05/18 08:18:15;;;;;;;2.58;1.30;;;;;;;13.51;nan;100342.88;5072129;28;20108;-72
2021/05/18 08:49:03;;;;;;;3.58;2.00;;;;;;;13.46;nan;100351.38;5085941;28;20043;-72
2021/05/18 09:28:55;;;;;;;3.53;1.90;;;;;;;15.32;nan;100345.47;5018509;28;20037;-72
2021/05/18 09:30:46;;;;;;;4.18;1.33;;;;;;;13.62;nan;100350.47;5081783;28;20060;-72
2021/05/18 10:35:54;;;;;;;2.45;0.90;;;;;;;15.96;nan;100291.41;5061143;28;20039;-71
2021/05/18 10:38:26;;;;;;;3.15;0.90;;;;;;;16.13;nan;100291.94;5080658;28;20048;-71
2021/05/18 10:41:08;;;;;;;1.35;0.60;;;;;;;16.03;nan;100281.59;5089910;28;20036;-71
2021/05/18 10:43:34;;;;;;;;;;;;;;;15.92;nan;100282.97;5087876;28;20032;-71
2021/05/18 10:46:03;;;;;;;2.35;0.88;;;;;;;15.64;nan;100276.75;5089970;28;19916;-72
2021/05/18 10:48:34;;;;;;;1.60;0.80;;;;;;;15.25;nan;100270.84;5087064;28;20048;-71
2021/05/18 10:51:22;;;;;;;;;;;;;;;15.26;nan;100269.81;5070429;28;20056;-71
2021/05/18 10:54:24;;;;;;;5.28;1.42;;;;;;;15.48;nan;100267.16;5065225;28;19978;-71
2021/05/18 10:56:52;;;;;;;1.35;0.80;;;;;;;15.69;nan;100267.16;5077020;28;20033;-71
2021/05/18 10:59:18;;;;;;;3.45;1.00;;;;;;;16.07;nan;100256.22;5085857;28;20059;-71
2021/05/18 11:01:44;;;;;;;2.15;0.90;;;;;;;16.18;nan;100256.69;5089420;28;20504;-71
2021/05/18 11:04:10;;;;;;;2.13;1.02;;;;;;;16.22;nan;100255.28;5087762;28;20405;-71
2021/05/18 11:06:55;;;;;;;2.08;0.90;;;;;;;15.99;nan;100258.19;5076064;28;20069;-71
2021/05/18 11:09:22;;;;;;;2.38;1.00;;;;;;;15.99;nan;100256.34;5071777;28;20063;-71
2021/05/18 11:11:49;;;;;;;3.47;1.00;;;;;;;15.94;nan;100248.09;5088951;28;20054;-71
2021/05/18 11:14:17;;;;;;;3.72;1.10;;;;;;;15.78;nan;100249.22;5080083;28;20556;-71
2021/05/18 11:16:43;;;;;;;1.67;0.88;;;;;;;15.76;nan;100242.44;5070496;28;20028;-71
2021/05/18 11:19:11;;;;;;;2.15;0.90;;;;;;;15.63;nan;100243.91;5086809;28;20024;-71
2021/05/18 11:21:41;;;;;;;3.28;1.20;;;;;;;15.60;nan;100238.97;5088146;28;20024;-71
2021/05/18 11:24:13;;;;;;;2.38;0.93;;;;;;;15.48;nan;100237.84;5069588;28;20174;-72
2021/05/18 11:26:51;;;;;;;1.75;0.80;;;;;;;15.61;nan;100240.66;5068242;28;20028;-71
2021/05/18 11:29:39;;;;;;;3.15;1.00;;;;;;;15.75;nan;100270.91;5090261;28;20127;-71
2021/05/18 11:32:11;;;;;;;2.00;0.80;;;;;;;14.93;nan;100268.63;5090432;28;20071;-71
2021/05/18 11:34:50;;;;;;;3.38;1.30;;;;;;;13.85;nan;100276.06;5082077;28;20028;-71
2021/05/18 11:37:16;;;;;;;2.03;0.57;;;;;;;13.30;nan;100283.25;5089251;28;20443;-72
2021/05/18 11:39:41;;;;;;;2.90;0.65;;;;;;;13.09;nan;100280.38;5069720;28;20360;-72
2021/05/18 11:42:06;;;;;;;1.95;0.60;;;;;;;12.80;nan;100280.97;5081380;28;20078;-72
2021/05/18 11:44:36;;;;;;;1.60;0.60;;;;;;;12.61;nan;100276.91;5074809;28;20036;-71
2021/05/18 11:47:03;;;;;;;2.75;0.70;;;;;;;12.51;nan;100283.25;5083506;28;20063;-71
2021/05/18 11:49:29;;;;;;;4.65;1.08;;;;;;;12.53;nan;100281.25;5069488;28;20119;-71
2021/05/18 11:51:56;;;;;;;3.58;0.80;;;;;;;12.64;nan;100287.19;5071886;28;20108;-71
2021/05/18 11:54:26;;;;;;;2.53;0.80;;;;;;;12.63;nan;100285.53;5047885;28;20041;-71
2021/05/18 11:56:52;;;;;;;3.40;0.70;;;;;;;12.80;nan;100280.97;5063540;28;20059;-71
2021/05/18 11:59:20;;;;;;;1.92;0.80;;;;;;;13.04;nan;100272.94;5090277;28;20054;-71
2021/05/18 12:01:50;;;;;;;2.30;0.88;;;;;;;13.49;nan;100271.34;5073794;28;20044;-71
2021/05/18 12:04:20;;;;;;;3.78;0.70;;;;;;;13.63;nan;100283.03;5086833;28;20051;-71
2021/05/18 12:07:00;;;;;;;;;;;;;;;13.87;nan;100287.34;5087994;28;20556;-71
2021/05/18 12:09:27;;;;;;;1.75;0.80;;;;;;;13.94;nan;100285.63;5087385;28;20235;-71
2021/05/18 12:11:58;;;;;;;2.47;0.80;;;;;;;14.06;nan;100270.03;5076808;28;20036;-71
2021/05/18 12:14:24;;;;;;;;;;;;;;;13.94;nan;100276.78;5045968;28;20029;-71
2021/05/18 12:16:50;;;;;;;1.80;0.68;;;;;;;13.84;nan;100278.88;5068346;28;20364;-71
2021/05/18 12:19:17;;;;;;;2.05;0.90;;;;;;;13.92;nan;100273.47;5066459;28;20036;-71
2021/05/18 12:21:45;;;;;;;3.15;1.13;;;;;;;13.98;nan;100265.63;5066399;28;20025;-71
2021/05/18 12:24:19;;;;;;;2.80;1.13;;;;;;;13.98;nan;100260.31;5078000;28;20082;-71
2021/05/18 12:26:50;;;;;;;2.78;0.90;;;;;;;13.79;nan;100264.28;5081486;28;20038;-72
2021/05/18 12:29:38;;;;;;;3.53;1.35;;;;;;;13.55;nan;100248.56;5083990;28;20040;-73
2021/05/18 12:32:27;;;;;;;2.28;1.13;;;;;;;13.16;nan;100254.78;5081174;28;20039;-73
2021/05/18 12:35:05;;;;;;;2.00;0.80;;;;;;;12.63;nan;100282.88;5079395;28;20036;-73
2021/05/18 12:37:33;;;;;;;2.17;1.00;;;;;;;12.35;nan;100295.72;5068310;28;20074;-73
2021/05/18 12:40:01;;;;;;;4.80;1.10;;;;;;;12.30;nan;100309.50;5068759;28;20115;-72
2021/05/18 12:42:28;;;;;;;1.52;0.60;;;;;;;12.22;nan;100304.19;5053156;28;20043;-72
2021/05/18 12:45:00;;;;;;;1.90;0.60;;;;;;;12.01;nan;100308.19;5068527;28;20323;-72
2021/05/18 12:47:28;;;;;;;1.80;0.70;;;;;;;11.90;nan;100306.69;5068826;28;20067;-73
2021/05/18 12:49:54;;;;;;;1.70;0.55;;;;;;;12.20;nan;100306.19;5068308;28;20037;-73
2021/05/18 12:52:20;;;;;;;1.63;0.80;;;;;;;12.58;nan;100294.00;5068612;28;20032;-73
2021/05/18 12:54:51;;;;;;;1.65;0.70;;;;;;;12.85;nan;100300.72;5075425;28;20062;-73
2021/05/18 12:57:20;;;;;;;1.90;0.60;;;;;;;13.02;nan;100296.16;5072958;28;20513;-73
2021/05/18 12:59:58;;;;;;;1.58;0.75;;;;;;;13.18;nan;100295.25;5068358;28;20447;-73
2021/05/18 13:02:46;;;;;;;2.35;0.70;;;;;;;13.35;nan;100298.69;5067049;28;20120;-73
2021/05/18 13:05:30;;;;;;;2.25;0.85;;;;;;;13.66;nan;100292.47;5084716;28;20063;-73
2021/05/18 13:08:17;;;;;;;1.23;0.75;;;;;;;13.86;nan;100292.81;5071449;28;20366;-73
2021/05/18 13:13:42;;;;;;;1.17;0.50;;;;;;;14.12;nan;100276.47;5088294;28;20442;-73
2021/05/18 13:16:12;;;;;;;1.70;0.70;;;;;;;14.29;nan;100274.47;5087093;28;20067;-73
2021/05/18 13:18:59;;;;;;;2.08;0.80;;;;;;;14.22;nan;100275.19;5066537;28;20101;-73
2021/05/18 13:21:32;;;;;;;2.20;0.85;;;;;;;14.41;nan;100273.00;5088792;28;20252;-73
2021/05/18 13:24:24;;;;;;;1.23;0.60;;;;;;;14.55;nan;100256.25;5084613;28;20131;-73
2021/05/18 13:26:45;;;;;;;1.80;0.70;;;;;;;14.55;nan;100260.75;5084388;28;20310;-73
2021/05/18 13:29:17;;;;;;;1.58;0.90;;;;;;;14.66;nan;100262.97;5069247;28;20064;-73
2021/05/18 13:31:44;;;;;;;3.72;0.80;;;;;;;14.67;nan;100258.47;5084564;28;20044;-73
2021/05/18 13:34:10;;;;;;;2.30;0.77;;;;;;;14.64;nan;100252.50;5084228;28;20432;-74
2021/05/18 13:36:36;;;;;;;1.45;0.70;;;;;;;14.72;nan;100253.41;5058451;28;20039;-73
2021/05/18 13:39:24;;;;;;;1.27;0.70;;;;;;;14.74;nan;100243.41;5089558;28;20059;-73
2021/05/18 13:41:49;;;;;;;1.38;0.70;;;;;;;14.76;nan;100242.19;5084875;28;20090;-73
2021/05/18 13:44:15;;;;;;;1.88;0.70;;;;;;;14.89;nan;100241.53;5078839;28;20033;-73
2021/05/18 13:46:42;;;;;;;1.17;0.70;;;;;;;14.94;nan;100241.78;5082531;28;20032;-73
2021/05/18 13:49:08;;;;;;;2.33;0.80;;;;;;;15.18;nan;100237.13;5088936;28;20186;-73
2021/05/18 13:51:33;;;;;;;1.40;0.80;;;;;;;15.38;nan;100234.69;5084003;28;20110;-73
2021/05/18 13:53:59;;;;;;;2.05;0.90;;;;;;;15.49;nan;100229.66;5088418;28;20035;-73
2021/05/18 13:56:25;;;;;;;1.33;0.80;;;;;;;15.86;nan;100238.41;5085172;28;20040;-73
2021/05/18 13:58:52;;;;;;;1.92;0.75;;;;;;;15.96;nan;100234.56;5085271;28;20046;-72
2021/05/18 14:01:18;;;;;;;1.80;0.77;;;;;;;15.85;nan;100231.44;5086846;28;20094;-72
2021/05/18 14:03:44;;;;;;;1.67;0.70;;;;;;;15.78;nan;100229.72;5087949;28;20036;-73
2021/05/18 14:06:11;;;;;;;2.78;0.93;;;;;;;15.58;nan;100227.69;5066188;28;20032;-72
2021/05/18 14:08:40;;;;;;;2.58;0.70;;;;;;;15.43;nan;100219.75;5079377;28;20039;-73
2021/05/18 14:11:16;;;;;;;3.50;0.82;;;;;;;15.20;nan;100225.28;5086218;28;20523;-73
2021/05/18 14:13:44;;;;;;;1.70;0.80;;;;;;;14.88;nan;100241.72;5085754;28;20040;-72
2021/05/18 14:16:14;;;;;;;1.08;0.50;;;;;;;14.55;nan;100239.47;5089802;28;20546;-72
2021/05/18 14:18:40;;;;;;;0.40;0.40;;;;;;;13.90;nan;100240.97;5083754;28;20115;-73
2021/05/18 14:21:06;;;;;;;1.73;0.50;;;;;;;13.41;nan;100228.09;5091707;28;20040;-73
2021/05/18 14:26:17;;;;;;;0.50;0.40;;;;;;;12.88;nan;100236.66;5082915;28;20123;-74
2021/05/18 14:28:42;;;;;;;1.15;0.55;;;;;;;13.25;nan;100242.25;5091197;28;20119;-74
2021/05/18 14:31:10;;;;;;;1.27;0.57;;;;;;;13.64;nan;100239.53;5092012;28;20119;-74
2021/05/18 14:33:38;;;;;;;2.47;0.70;;;;;;;13.81;nan;100242.88;5079854;28;20073;-74
2021/05/18 14:36:05;;;;;;;0.90;0.60;;;;;;;13.86;nan;100235.16;5087352;28;20396;-73
2021/05/18 14:38:30;;;;;;;1.85;0.70;;;;;;;14.08;nan;100229.97;5091146;28;20230;-74
2021/05/18 14:57:05;;;;;;;1.23;0.30;;;;;;;15.13;nan;100215.56;5080216;28;20098;-73
2021/05/18 14:59:30;;;;;;;1.20;0.30;;;;;;;15.23;nan;100218.72;5080512;28;20040;-74
2021/05/18 15:01:55;;;;;;;1.08;0.40;;;;;;;15.38;nan;100224.03;5078051;28;20055;-74
2021/05/18 15:04:21;;;;;;;1.08;0.43;;;;;;;15.35;nan;100219.91;5089065;28;20039;-74
2021/05/18 15:06:46;;;;;;;0.85;0.50;;;;;;;15.26;nan;100215.72;5072457;28;20405;-73
2021/05/18 15:09:11;;;;;;;0.57;0.40;;;;;;;15.35;nan;100214.56;5082533;28;20409;-73
2021/05/18 15:11:37;;;;;;;0.88;0.50;;;;;;;15.32;nan;100217.59;5066823;28;20462;-73
2021/05/18 15:14:03;;;;;;;0.47;0.40;;;;;;;15.39;nan;100215.00;5076181;28;20036;-73
2021/05/18 15:16:29;;;;;;;0.93;0.50;;;;;;;15.45;nan;100222.25;5083549;28;20039;-73
2021/05/18 15:19:02;;;;;;;1.40;0.50;;;;;;;15.15;nan;100217.03;5082434;28;20040;-73
2021/05/18 15:21:27;;;;;;;0.95;0.45;;;;;;;14.84;nan;100222.63;5084656;28;20496;-73
2021/05/18 15:23:52;;;;;;;1.08;0.40;;;;;;;14.65;nan;100224.03;5062937;28;20041;-73
2021/05/18 15:26:17;;;;;;;2.42;0.50;;;;;;;14.54;nan;100217.38;5077992;28;20040;-73
2021/05/18 15:28:43;;;;;;;0.43;0.40;;;;;;;14.48;nan;100214.59;5085358;28;20572;-73
2021/05/18 15:31:10;;;;;;;0.50;0.40;;;;;;;14.39;nan;100217.31;5089578;28;20036;-73
2021/05/18 15:33:35;;;;;;;0.75;0.30;;;;;;;13.99;nan;100219.44;5090060;28;20075;-73
2021/05/18 15:36:02;;;;;;;0.38;0.30;;;;;;;13.66;nan;100226.88;5083903;28;20059;-77
2021/05/18 15:38:29;;;;;;;1.85;1.00;;;;;;;13.43;nan;100232.22;5070740;28;20085;-73
2021/05/18 15:40:54;;;;;;;0.75;0.50;;;;;;;13.36;nan;100228.63;5082123;28;20485;-73
2021/05/18 15:43:20;;;;;;;0.55;0.40;;;;;;;13.28;nan;100234.00;5080061;28;20094;-73
2021/05/18 15:45:45;;;;;;;0.93;0.47;;;;;;;13.14;nan;100235.53;5085677;28;20515;-73
2021/05/18 15:48:10;;;;;;;2.40;0.60;;;;;;;12.98;nan;100228.50;5069063;28;20036;-74
2021/05/18 15:50:36;;;;;;;0.63;0.40;;;;;;;13.07;nan;100235.41;5088836;28;20086;-73
2021/05/18 15:53:01;;;;;;;1.33;0.47;;;;;;;12.94;nan;100243.09;5088499;28;20032;-73
2021/05/18 15:55:26;;;;;;;0.85;0.57;;;;;;;12.80;nan;100238.53;5070745;28;20040;-73
2021/05/18 15:57:52;;;;;;;0.70;0.50;;;;;;;12.79;nan;100239.53;5084651;28;20104;-73
2021/05/18 16:00:18;;;;;;;1.75;0.63;;;;;;;12.78;nan;100251.16;5057035;28;20041;-73
2021/05/18 16:02:44;;;;;;;0.50;0.43;;;;;;;12.79;nan;100248.31;5081942;28;20036;-74
2021/05/18 16:05:10;;;;;;;0.98;0.52;;;;;;;12.79;nan;100256.28;5081792;28;20040;-73
2021/05/18 16:07:37;;;;;;;1.55;0.60;;;;;;;12.81;nan;100242.84;5070054;28;20036;-74
2021/05/18 16:10:03;;;;;;;0.82;0.57;;;;;;;12.77;nan;100237.06;5067857;28;20414;-75
2021/05/18 16:12:28;;;;;;;0.82;0.50;;;;;;;12.82;nan;100242.66;5068900;28;20550;-74
2021/05/18 16:14:54;;;;;;;0.73;0.50;;;;;;;12.77;nan;100239.69;5089774;28;20040;-74
2021/05/18 16:17:21;;;;;;;1.00;0.50;;;;;;;12.70;nan;100242.25;5085246;28;20044;-74
2021/05/18 16:19:47;;;;;;;2.35;0.60;;;;;;;12.82;nan;100245.31;5068849;28;20033;-74
2021/05/18 16:22:13;;;;;;;0.73;0.50;;;;;;;12.76;nan;100243.38;5062781;28;20040;-74
2021/05/18 16:24:38;;;;;;;0.82;0.50;;;;;;;12.73;nan;100247.19;5089492;28;20118;-73
2021/05/18 16:27:05;;;;;;;1.48;0.52;;;;;;;12.80;nan;100242.03;5064813;28;20040;-74
2021/05/18 16:29:31;;;;;;;1.23;0.60;;;;;;;12.87;nan;100243.00;5071764;28;20040;-74
2021/05/18 16:31:56;;;;;;;1.85;0.80;;;;;;;12.80;nan;100233.22;5046889;28;20107;-74
2021/05/18 16:34:21;;;;;;;2.47;0.93;;;;;;;12.71;nan;100235.09;5043845;28;20446;-73
2021/05/18 16:36:47;;;;;;;2.78;1.10;;;;;;;12.59;nan;100228.53;5074818;28;20051;-74
2021/05/18 16:39:14;;;;;;;2.08;0.80;;;;;;;12.60;nan;100233.66;5079920;28;20417;-73
2021/05/18 16:41:41;;;;;;;1.45;0.95;;;;;;;12.62;nan;100244.09;5071046;28;20039;-73
2021/05/18 16:44:09;;;;;;;1.00;0.60;;;;;;;12.53;nan;100243.28;5070534;28;20036;-74
2021/05/18 16:46:36;;;;;;;1.70;0.60;;;;;;;12.56;nan;100245.63;5082477;28;20565;-73
2021/05/18 16:49:03;;;;;;;0.77;0.60;;;;;;;12.43;nan;100243.50;5077794;28;20062;-73
2021/05/18 16:51:28;;;;;;;0.75;0.60;;;;;;;12.35;nan;100258.59;5077684;28;20042;-73